Time;durP1;ratioP1;P1;durP2;ratioP2;P2;SDS_P1;SDS_P2;PMS_P1;PMS_P2;Temp;Humidity;BMP_temperature;BMP_pressure;BME280_temperature;BME280_humidity;BME280_pressure;Samples;Min_cycle;Max_cycle;Signal;HPM_P1;HPM_P2
2024/03/22 00:01:19;;;;;;;13.07;8.07;;;;;;;8.31;100.00;101554.25;5063053;28;20675;-71
2024/03/22 00:03:46;;;;;;;14.27;8.20;;;;;;;8.29;100.00;101554.53;5063362;28;20205;-71
2024/03/22 00:06:11;;;;;;;12.90;8.40;;;;;;;8.28;100.00;101554.84;5060798;28;20221;-71
2024/03/22 00:08:37;;;;;;;12.67;8.33;;;;;;;8.23;100.00;101547.78;5063291;28;20563;-71
2024/03/22 00:11:03;;;;;;;14.10;8.50;;;;;;;8.21;100.00;101557.81;5061504;28;20285;-71
2024/03/22 00:13:29;;;;;;;14.23;8.70;;;;;;;8.16;100.00;101546.56;5064977;28;20282;-71
2024/03/22 00:15:56;;;;;;;16.30;9.03;;;;;;;8.12;100.00;101548.22;5058629;28;20310;-71
2024/03/22 00:18:22;;;;;;;15.33;8.23;;;;;;;8.06;100.00;101539.59;5060045;28;20194;-71
2024/03/22 00:20:48;;;;;;;14.07;8.00;;;;;;;7.97;100.00;101536.03;5062207;28;20535;-71
2024/03/22 00:23:14;;;;;;;13.83;8.27;;;;;;;7.91;100.00;101537.19;5062070;28;20208;-71
2024/03/22 00:25:39;;;;;;;16.03;9.67;;;;;;;7.83;100.00;101527.28;5063274;28;20635;-71
2024/03/22 00:28:06;;;;;;;14.43;8.50;;;;;;;7.75;100.00;101529.78;5063969;28;20238;-71
2024/03/22 00:30:31;;;;;;;12.67;7.93;;;;;;;7.67;100.00;101525.16;5062797;28;20217;-71
2024/03/22 00:32:59;;;;;;;14.97;8.10;;;;;;;7.59;100.00;101529.19;5068665;28;20197;-71
2024/03/22 00:35:24;;;;;;;17.57;8.83;;;;;;;7.51;100.00;101524.56;5044469;28;20208;-71
2024/03/22 00:37:51;;;;;;;14.93;8.43;;;;;;;7.43;100.00;101521.78;5063366;28;20254;-71
2024/03/22 00:40:17;;;;;;;13.43;8.50;;;;;;;7.38;100.00;101537.59;5057674;28;20564;-71
2024/03/22 00:42:44;;;;;;;13.53;7.50;;;;;;;7.31;100.00;101524.03;5062598;28;20778;-71
2024/03/22 00:45:09;;;;;;;15.87;9.03;;;;;;;7.25;100.00;101528.53;5061341;28;20204;-71
2024/03/22 00:47:35;;;;;;;16.23;7.97;;;;;;;7.19;100.00;101524.41;5063135;28;20212;-71
2024/03/22 00:50:03;;;;;;;13.87;8.57;;;;;;;7.15;100.00;101525.25;5062644;28;20741;-71
2024/03/22 00:52:29;;;;;;;15.17;8.73;;;;;;;7.10;100.00;101520.81;5058877;28;20203;-71
2024/03/22 00:54:54;;;;;;;14.87;8.93;;;;;;;7.08;100.00;101516.91;5062650;28;20767;-71
2024/03/22 00:57:21;;;;;;;17.33;8.87;;;;;;;7.07;100.00;101512.72;5060931;28;20220;-71
2024/03/22 00:59:47;;;;;;;17.73;9.27;;;;;;;7.03;100.00;101517.75;5065937;28;20662;-71
2024/03/22 01:02:13;;;;;;;15.43;8.70;;;;;;;7.02;100.00;101508.31;5062399;28;20273;-71
2024/03/22 01:04:38;;;;;;;18.53;9.13;;;;;;;7.01;100.00;101503.34;5062190;28;20213;-71
2024/03/22 01:07:06;;;;;;;20.00;9.73;;;;;;;7.03;100.00;101504.63;5064590;28;20627;-71
2024/03/22 01:09:32;;;;;;;14.40;8.30;;;;;;;7.04;100.00;101502.81;5063734;28;20227;-71
2024/03/22 01:11:58;;;;;;;18.27;8.60;;;;;;;7.06;100.00;101503.28;5062804;28;20198;-71
2024/03/22 01:14:23;;;;;;;20.17;9.80;;;;;;;7.07;100.00;101496.97;5062310;28;20197;-71
2024/03/22 01:16:50;;;;;;;16.13;8.40;;;;;;;7.09;100.00;101500.88;5065818;28;20214;-71
2024/03/22 01:19:15;;;;;;;18.13;9.87;;;;;;;7.12;100.00;101502.16;5064607;28;20195;-71
2024/03/22 01:21:41;;;;;;;15.80;8.60;;;;;;;7.15;100.00;101494.50;5063981;28;20653;-71
2024/03/22 01:24:08;;;;;;;15.83;9.70;;;;;;;7.18;100.00;101485.28;5064260;28;20776;-71
2024/03/22 01:26:34;;;;;;;17.57;10.07;;;;;;;7.21;100.00;101490.00;5069354;28;20261;-71
2024/03/22 01:29:00;;;;;;;20.80;9.90;;;;;;;7.24;100.00;101484.16;5067145;28;20200;-71
2024/03/22 01:31:28;;;;;;;19.63;9.93;;;;;;;7.26;100.00;101490.69;5067094;28;20209;-71
2024/03/22 01:33:53;;;;;;;17.83;9.93;;;;;;;7.29;100.00;101481.47;5065260;28;20211;-71
2024/03/22 01:36:20;;;;;;;17.70;9.47;;;;;;;7.30;100.00;101486.47;5062559;28;20301;-71
2024/03/22 01:38:45;;;;;;;21.53;10.50;;;;;;;7.32;100.00;101479.09;5067662;28;20239;-71
2024/03/22 01:41:13;;;;;;;18.93;9.50;;;;;;;7.34;100.00;101481.41;5063581;28;20189;-71
2024/03/22 01:43:38;;;;;;;18.83;9.33;;;;;;;7.35;100.00;101490.88;5065537;28;20208;-71
2024/03/22 01:46:05;;;;;;;19.33;9.13;;;;;;;7.36;100.00;101482.69;5067179;28;20226;-71
2024/03/22 01:48:31;;;;;;;19.80;9.50;;;;;;;7.37;100.00;101483.50;5065018;28;20206;-71
2024/03/22 01:50:58;;;;;;;15.93;9.33;;;;;;;7.38;100.00;101479.78;5067877;28;20217;-71
2024/03/22 01:53:24;;;;;;;14.47;8.27;;;;;;;7.39;100.00;101481.34;5067238;28;20208;-71
2024/03/22 01:55:50;;;;;;;17.93;9.77;;;;;;;7.37;100.00;101481.66;5063687;28;20224;-71
2024/03/22 01:58:18;;;;;;;16.40;9.17;;;;;;;7.39;100.00;101481.34;5065953;28;20200;-71
2024/03/22 02:00:44;;;;;;;16.27;7.93;;;;;;;7.38;100.00;101479.78;5063322;28;20552;-71
2024/03/22 02:03:10;;;;;;;14.07;8.33;;;;;;;7.39;100.00;101489.22;5049151;28;20613;-71
2024/03/22 02:05:36;;;;;;;16.00;8.97;;;;;;;7.38;100.00;101475.34;5062801;28;20228;-71
2024/03/22 02:08:01;;;;;;;17.40;8.83;;;;;;;7.39;100.00;101474.25;5063127;28;20206;-71
2024/03/22 02:10:28;;;;;;;15.27;8.37;;;;;;;7.40;100.00;101472.44;5065871;28;20222;-71
2024/03/22 02:12:53;;;;;;;14.83;8.47;;;;;;;7.40;100.00;101469.81;5063109;28;20202;-71
2024/03/22 02:15:21;;;;;;;16.87;8.60;;;;;;;7.40;100.00;101467.19;5064928;28;20283;-71
2024/03/22 02:17:46;;;;;;;21.67;10.03;;;;;;;7.41;100.00;101466.09;5045197;28;20203;-71
2024/03/22 02:20:13;;;;;;;17.90;9.40;;;;;;;7.42;100.00;101467.66;5068716;28;20195;-71
2024/03/22 02:22:38;;;;;;;18.17;9.37;;;;;;;7.42;100.00;101465.03;5067036;28;20239;-71
2024/03/22 02:25:07;;;;;;;15.93;8.67;;;;;;;7.42;100.00;101462.41;5064880;28;20300;-71
2024/03/22 02:27:32;;;;;;;16.97;9.63;;;;;;;7.42;100.00;101451.91;5062244;28;20731;-71
2024/03/22 02:29:59;;;;;;;16.27;8.57;;;;;;;7.44;100.00;101447.94;5066656;28;20207;-71
2024/03/22 02:32:24;;;;;;;17.13;8.73;;;;;;;7.44;100.00;101453.19;5061659;28;20195;-71
2024/03/22 02:34:50;;;;;;;17.47;9.03;;;;;;;7.45;100.00;101454.75;5065813;28;20223;-71
2024/03/22 02:37:16;;;;;;;15.97;9.33;;;;;;;7.46;100.00;101448.41;5060943;28;20222;-71
2024/03/22 02:39:42;;;;;;;17.83;9.33;;;;;;;7.48;100.00;101450.75;5062883;28;20202;-71
2024/03/22 02:42:09;;;;;;;18.00;9.43;;;;;;;7.48;100.00;101443.69;5066588;28;20235;-71
2024/03/22 02:44:38;;;;;;;18.50;9.73;;;;;;;7.51;100.00;101444.97;5064641;28;20228;-71
2024/03/22 02:47:04;;;;;;;19.60;10.77;;;;;;;7.50;100.00;101438.91;5059159;28;20642;-71
2024/03/22 02:49:30;;;;;;;23.20;10.57;;;;;;;7.53;100.00;101433.09;5060858;28;20304;-71
2024/03/22 02:55:44;;;;;;;21.27;9.73;;;;;;;7.57;100.00;101434.06;5060719;28;20314;-71
2024/03/22 02:58:10;;;;;;;18.63;10.50;;;;;;;7.58;100.00;101425.13;5049004;28;20207;-71
2024/03/22 03:00:38;;;;;;;19.87;10.23;;;;;;;7.60;100.00;101430.88;5068858;28;20195;-71
2024/03/22 03:03:04;;;;;;;22.40;11.57;;;;;;;7.61;100.00;101429.03;5064759;28;20717;-71
2024/03/22 03:05:30;;;;;;;21.77;10.23;;;;;;;7.61;100.00;101421.94;5064112;28;20310;-71
2024/03/22 03:07:55;;;;;;;21.27;10.43;;;;;;;7.62;100.00;101425.34;5047709;28;20215;-71
2024/03/22 03:10:22;;;;;;;20.13;10.73;;;;;;;7.64;100.00;101423.19;5061240;28;20678;-71
2024/03/22 03:12:47;;;;;;;22.67;11.00;;;;;;;7.63;100.00;101409.28;5066732;28;20219;-71
2024/03/22 03:15:16;;;;;;;22.40;11.40;;;;;;;7.64;100.00;101408.22;5063442;28;20193;-71
2024/03/22 03:17:41;;;;;;;19.13;10.57;;;;;;;7.65;100.00;101409.00;5064990;28;20199;-71
2024/03/22 03:20:10;;;;;;;21.67;10.93;;;;;;;7.64;100.00;101404.81;5045289;28;20878;-71
2024/03/22 03:22:35;;;;;;;22.60;10.60;;;;;;;7.64;100.00;101399.56;5064844;28;20207;-71
2024/03/22 03:25:03;;;;;;;22.33;11.93;;;;;;;7.62;100.00;101397.19;5069490;28;20197;-71
2024/03/22 03:27:29;;;;;;;19.57;10.83;;;;;;;7.62;100.00;101393.81;5060702;28;20701;-71
2024/03/22 03:29:55;;;;;;;25.27;11.97;;;;;;;7.61;100.00;101385.13;5066382;28;20250;-71
2024/03/22 03:32:22;;;;;;;21.87;10.57;;;;;;;7.62;100.00;101393.81;5064053;28;20190;-71
2024/03/22 03:34:49;;;;;;;21.03;10.43;;;;;;;7.60;100.00;101377.53;5066103;28;20200;-71
2024/03/22 03:37:14;;;;;;;19.37;10.73;;;;;;;7.60;100.00;101380.94;5060465;28;20222;-71
2024/03/22 03:39:40;;;;;;;21.60;10.53;;;;;;;7.59;100.00;101378.59;5061473;28;20224;-71
2024/03/22 03:42:06;;;;;;;20.03;10.93;;;;;;;7.58;100.00;101380.47;5068643;28;20217;-71
2024/03/22 03:44:32;;;;;;;20.10;10.80;;;;;;;7.57;100.00;101375.47;5060867;28;20197;-71
2024/03/22 03:46:59;;;;;;;20.83;11.10;;;;;;;7.56;100.00;101366.03;5063117;28;20231;-71
2024/03/22 03:49:27;;;;;;;21.77;12.17;;;;;;;7.55;100.00;101372.34;5040809;28;20748;-71
2024/03/22 03:51:52;;;;;;;18.70;10.40;;;;;;;7.54;100.00;101366.31;5062396;28;20188;-71
2024/03/22 03:54:19;;;;;;;22.17;11.13;;;;;;;7.52;100.00;101371.09;5060947;28;20212;-71
2024/03/22 03:56:44;;;;;;;18.97;9.93;;;;;;;7.50;100.00;101375.06;5063445;28;20231;-71
2024/03/22 03:59:10;;;;;;;17.93;10.13;;;;;;;7.49;100.00;101374.28;5067453;28;20679;-71
2024/03/22 04:01:36;;;;;;;24.40;10.73;;;;;;;7.47;100.00;101368.53;5063735;28;20202;-71
2024/03/22 04:04:04;;;;;;;21.20;11.40;;;;;;;7.46;100.00;101363.56;5052068;28;20215;-71
2024/03/22 04:06:31;;;;;;;22.67;11.37;;;;;;;7.43;100.00;101341.28;5056702;28;20231;-71
2024/03/22 04:08:58;;;;;;;20.47;10.77;;;;;;;7.42;100.00;101339.72;5062397;28;20228;-71
2024/03/22 04:11:23;;;;;;;22.53;11.17;;;;;;;7.42;100.00;101344.16;5063463;28;20214;-71
2024/03/22 04:13:50;;;;;;;18.53;9.57;;;;;;;7.40;100.00;101341.06;5048971;28;20244;-71
2024/03/22 04:16:15;;;;;;;20.20;10.27;;;;;;;7.39;100.00;101329.75;5062233;28;20231;-71
2024/03/22 04:18:42;;;;;;;20.47;11.03;;;;;;;7.40;100.00;101341.06;5063881;28;20201;-71
2024/03/22 04:21:07;;;;;;;21.13;10.67;;;;;;;7.39;100.00;101334.22;5061445;28;20249;-71
2024/03/22 04:23:35;;;;;;;20.33;9.87;;;;;;;7.39;100.00;101321.88;5064287;28;20199;-71
2024/03/22 04:26:01;;;;;;;20.17;10.07;;;;;;;7.40;100.00;101327.94;5062531;28;20582;-71
2024/03/22 04:28:28;;;;;;;21.70;9.73;;;;;;;7.38;100.00;101317.69;5065554;28;20662;-71
2024/03/22 04:30:55;;;;;;;26.23;11.90;;;;;;;7.39;100.00;101315.84;5063515;28;20207;-71
2024/03/22 04:33:21;;;;;;;24.50;10.43;;;;;;;7.39;100.00;101307.94;5063673;28;20196;-71
2024/03/22 04:35:47;;;;;;;20.67;9.57;;;;;;;7.37;100.00;101313.50;5056393;28;20215;-71
2024/03/22 04:38:13;;;;;;;22.07;11.03;;;;;;;7.37;100.00;101315.34;5064137;28;20208;-71
2024/03/22 04:40:41;;;;;;;22.87;11.10;;;;;;;7.37;100.00;101310.09;5062516;28;20195;-71
2024/03/22 04:43:08;;;;;;;18.97;9.50;;;;;;;7.36;100.00;101305.91;5059142;28;20207;-71
2024/03/22 04:45:35;;;;;;;21.07;10.57;;;;;;;7.35;100.00;101297.25;5058919;28;20232;-71
2024/03/22 04:48:01;;;;;;;19.97;10.10;;;;;;;7.35;100.00;101288.59;5060539;28;20203;-72
2024/03/22 04:50:27;;;;;;;21.00;9.70;;;;;;;7.35;100.00;101293.84;5058177;28;20213;-71
2024/03/22 04:52:53;;;;;;;21.30;10.63;;;;;;;7.34;100.00;101282.53;5062788;28;20206;-71
2024/03/22 04:55:19;;;;;;;19.23;9.93;;;;;;;7.34;100.00;101268.63;5062715;28;20208;-71
2024/03/22 04:57:46;;;;;;;26.07;10.43;;;;;;;7.34;100.00;101279.13;5064749;28;20203;-71
2024/03/22 05:00:13;;;;;;;21.27;9.97;;;;;;;7.33;100.00;101275.75;5058606;28;20192;-71
2024/03/22 05:02:40;;;;;;;19.97;9.73;;;;;;;7.34;100.00;101273.88;5060671;28;20204;-71
2024/03/22 05:05:07;;;;;;;23.07;9.63;;;;;;;7.33;100.00;101275.75;5067296;28;20209;-71
2024/03/22 05:07:32;;;;;;;18.23;9.43;;;;;;;7.34;100.00;101266.78;5064987;28;20563;-71
2024/03/22 05:09:59;;;;;;;22.17;11.13;;;;;;;7.33;100.00;101264.44;5060567;28;20217;-71
2024/03/22 05:12:24;;;;;;;19.60;9.97;;;;;;;7.33;100.00;101283.63;5063306;28;20212;-71
2024/03/22 05:14:52;;;;;;;21.07;9.93;;;;;;;7.32;100.00;101284.69;5061815;28;20741;-71
2024/03/22 05:17:17;;;;;;;19.47;9.43;;;;;;;7.34;100.00;101279.91;5067815;28;20222;-71
2024/03/22 05:19:43;;;;;;;19.77;9.97;;;;;;;7.33;100.00;101283.63;5061007;28;20200;-71
2024/03/22 05:22:09;;;;;;;20.73;8.97;;;;;;;7.33;100.00;101290.72;5064127;28;20199;-71
2024/03/22 05:24:35;;;;;;;21.27;10.03;;;;;;;7.33;100.00;101285.44;5061042;28;20200;-71
2024/03/22 05:27:01;;;;;;;25.97;11.30;;;;;;;7.34;100.00;101282.53;5061514;28;20231;-71
2024/03/22 05:29:27;;;;;;;22.53;10.20;;;;;;;7.34;100.00;101274.66;5064290;28;20191;-71
2024/03/22 05:31:54;;;;;;;18.57;9.70;;;;;;;7.34;100.00;101274.66;5062157;28;20227;-71
2024/03/22 05:34:20;;;;;;;21.53;9.90;;;;;;;7.36;100.00;101263.88;5056769;28;20208;-71
2024/03/22 05:36:46;;;;;;;20.37;9.73;;;;;;;7.37;100.00;101263.59;5063878;28;20216;-71
2024/03/22 05:39:13;;;;;;;20.13;9.90;;;;;;;7.38;100.00;101259.09;5060675;28;20203;-71
2024/03/22 05:41:38;;;;;;;19.03;9.30;;;;;;;7.38;100.00;101262.53;5059463;28;20277;-71
2024/03/22 05:44:05;;;;;;;22.53;11.00;;;;;;;7.39;100.00;101250.94;5059283;28;20278;-71
2024/03/22 05:46:31;;;;;;;22.07;10.87;;;;;;;7.42;100.00;101250.38;5055799;28;20224;-71
2024/03/22 05:48:58;;;;;;;23.07;10.87;;;;;;;7.44;100.00;101245.59;5062878;28;20199;-71
2024/03/22 05:51:24;;;;;;;22.97;10.63;;;;;;;7.47;100.00;101239.00;5057617;28;21269;-71
2024/03/22 05:53:50;;;;;;;21.80;10.10;;;;;;;7.49;100.00;101236.84;5059685;28;20210;-71
2024/03/22 05:56:15;;;;;;;22.33;10.70;;;;;;;7.53;100.00;101240.47;5055953;28;20227;-71
2024/03/22 05:58:42;;;;;;;21.67;10.73;;;;;;;7.56;100.00;101239.91;5064248;28;20204;-71
2024/03/22 06:01:07;;;;;;;21.70;11.00;;;;;;;7.59;100.00;101242.72;5058870;28;20195;-71
2024/03/22 06:03:34;;;;;;;24.10;10.77;;;;;;;7.61;100.00;101248.47;5059166;28;20569;-71
2024/03/22 06:06:01;;;;;;;22.17;9.97;;;;;;;7.65;100.00;101243.41;5058863;28;20252;-71
2024/03/22 06:08:27;;;;;;;21.93;9.80;;;;;;;7.68;100.00;101246.25;5061366;28;20196;-71
2024/03/22 06:10:55;;;;;;;23.90;11.00;;;;;;;7.72;100.00;101243.81;5040943;28;20635;-71
2024/03/22 06:13:22;;;;;;;20.93;11.70;;;;;;;7.77;100.00;101239.25;5036056;28;20667;-71
2024/03/22 06:15:48;;;;;;;21.23;10.90;;;;;;;7.82;100.00;101238.38;5058466;28;20218;-71
2024/03/22 06:18:15;;;;;;;25.53;10.93;;;;;;;7.89;100.00;101236.13;5048156;28;20202;-71
2024/03/22 06:20:41;;;;;;;27.17;12.90;;;;;;;7.94;100.00;101236.84;5064900;28;20209;-71
2024/03/22 06:23:10;;;;;;;25.37;12.53;;;;;;;8.01;100.00;101225.91;5068744;28;20681;-71
2024/03/22 06:25:36;;;;;;;23.50;12.33;;;;;;;8.06;100.00;101220.56;5069863;28;20224;-71
2024/03/22 06:28:03;;;;;;;20.50;10.17;;;;;;;8.12;100.00;101220.16;5068161;28;20678;-71
2024/03/22 06:30:28;;;;;;;21.90;11.93;;;;;;;8.19;100.00;101225.81;5063025;28;20214;-71
2024/03/22 06:32:55;;;;;;;21.70;12.17;;;;;;;8.25;100.00;101223.91;5059904;28;20200;-71
2024/03/22 06:35:21;;;;;;;17.67;10.00;;;;;;;8.29;100.00;101215.13;5058010;28;20206;-71
2024/03/22 06:37:48;;;;;;;20.83;11.37;;;;;;;8.34;100.00;101225.53;5065603;28;20209;-71
2024/03/22 06:40:17;;;;;;;18.60;10.90;;;;;;;8.39;100.00;101220.16;5062115;28;20209;-71
2024/03/22 06:42:43;;;;;;;24.33;13.07;;;;;;;8.44;100.00;101225.31;5064347;28;20274;-71
2024/03/22 06:45:09;;;;;;;26.63;13.17;;;;;;;8.48;100.00;101214.97;5067878;28;20201;-71
2024/03/22 06:47:35;;;;;;;25.90;12.07;;;;;;;8.51;100.00;101206.50;5066642;28;20259;-71
2024/03/22 06:50:01;;;;;;;18.73;9.70;;;;;;;8.56;100.00;101201.13;5066204;28;20741;-71
2024/03/22 06:52:27;;;;;;;25.00;11.53;;;;;;;8.60;100.00;101204.75;5064991;28;20301;-71
2024/03/22 06:54:53;;;;;;;24.53;12.57;;;;;;;8.62;100.00;101197.31;5062183;28;20554;-71
2024/03/22 06:57:21;;;;;;;28.43;13.33;;;;;;;8.66;100.00;101193.81;5055941;28;20230;-71
2024/03/22 06:59:46;;;;;;;23.97;12.03;;;;;;;8.70;100.00;101186.84;5065731;28;20199;-71
2024/03/22 07:02:13;;;;;;;24.53;12.43;;;;;;;8.74;100.00;101184.41;5062989;28;20213;-71
2024/03/22 07:04:39;;;;;;;19.27;10.47;;;;;;;8.79;100.00;101186.91;5063194;28;20198;-71
2024/03/22 07:07:05;;;;;;;18.57;10.03;;;;;;;8.83;100.00;101187.88;5065707;28;20309;-71
2024/03/22 07:09:32;;;;;;;17.70;10.63;;;;;;;8.88;100.00;101185.13;5064917;28;20210;-71
2024/03/22 07:11:59;;;;;;;27.30;14.40;;;;;;;8.90;100.00;101175.84;5062567;28;20226;-71
2024/03/22 07:14:25;;;;;;;17.30;9.87;;;;;;;8.93;100.00;101180.53;5064938;28;20202;-71
2024/03/22 07:16:53;;;;;;;18.13;10.17;;;;;;;8.99;100.00;101175.91;5059848;28;20309;-71
2024/03/22 07:19:19;;;;;;;18.23;10.00;;;;;;;9.03;100.00;101179.50;5059913;28;20654;-71
2024/03/22 07:21:46;;;;;;;15.30;8.57;;;;;;;9.08;100.00;101171.47;5063001;28;20192;-72
2024/03/22 07:24:11;;;;;;;19.90;10.27;;;;;;;9.13;100.00;101169.50;5062959;28;20222;-71
2024/03/22 07:26:38;;;;;;;15.77;9.93;;;;;;;9.19;100.00;101168.31;5065076;28;20255;-71
2024/03/22 07:29:03;;;;;;;14.80;8.70;;;;;;;9.27;100.00;101166.81;5061293;28;20214;-71
2024/03/22 07:31:31;;;;;;;15.47;8.60;;;;;;;9.32;100.00;101169.31;5060085;28;20604;-71
2024/03/22 07:33:56;;;;;;;14.30;8.93;;;;;;;9.39;100.00;101175.72;5066817;28;20268;-71
2024/03/22 07:36:23;;;;;;;14.17;9.33;;;;;;;9.45;100.00;101174.50;5065393;28;20219;-71
2024/03/22 07:38:48;;;;;;;14.70;8.90;;;;;;;9.53;100.00;101172.97;5063145;28;20204;-71
2024/03/22 07:41:15;;;;;;;15.87;9.13;;;;;;;9.60;100.00;101175.94;5060919;28;20192;-71
2024/03/22 07:43:40;;;;;;;13.97;8.30;;;;;;;9.67;100.00;101177.06;5065167;28;20866;-71
2024/03/22 07:46:07;;;;;;;13.60;8.07;;;;;;;9.75;100.00;101172.91;5065784;28;20233;-71
2024/03/22 07:48:33;;;;;;;14.73;8.33;;;;;;;9.82;100.00;101163.47;5064635;28;20215;-71
2024/03/22 07:51:00;;;;;;;15.67;8.97;;;;;;;9.89;100.00;101158.50;5062263;28;20312;-71
2024/03/22 07:53:26;;;;;;;14.60;8.57;;;;;;;9.95;100.00;101161.81;5059288;28;20211;-71
2024/03/22 07:55:52;;;;;;;11.93;7.50;;;;;;;10.03;100.00;101156.53;5063406;28;20225;-71
2024/03/22 07:58:19;;;;;;;11.40;7.80;;;;;;;10.08;100.00;101150.38;5064200;28;20190;-71
2024/03/22 08:00:45;;;;;;;13.37;8.30;;;;;;;10.16;100.00;101149.63;5063372;28;20209;-71
2024/03/22 08:03:15;;;;;;;13.20;7.70;;;;;;;10.25;100.00;101153.81;5062859;28;20212;-72
2024/03/22 08:05:43;;;;;;;14.67;7.80;;;;;;;10.32;100.00;101138.31;5076522;28;20240;-71
2024/03/22 08:08:08;;;;;;;11.87;7.50;;;;;;;10.41;100.00;101151.50;5072460;28;20217;-71
2024/03/22 08:10:35;;;;;;;12.13;7.97;;;;;;;10.47;100.00;101135.22;5049929;28;20737;-71
2024/03/22 08:13:00;;;;;;;13.60;7.90;;;;;;;10.54;100.00;101126.81;5071082;28;20201;-71
2024/03/22 08:15:27;;;;;;;12.17;7.80;;;;;;;10.62;100.00;101124.16;5066018;28;20282;-71
2024/03/22 08:17:52;;;;;;;14.17;7.67;;;;;;;10.66;100.00;101124.34;5069077;28;20209;-71
2024/03/22 08:20:19;;;;;;;13.80;7.63;;;;;;;10.71;100.00;101117.00;5048530;28;20193;-71
2024/03/22 08:22:45;;;;;;;10.27;7.50;;;;;;;10.79;100.00;101116.22;5073514;28;20217;-71
2024/03/22 08:25:12;;;;;;;11.87;6.83;;;;;;;10.85;100.00;101117.63;5064096;28;20245;-71
2024/03/22 08:27:37;;;;;;;11.03;7.63;;;;;;;10.88;100.00;101110.94;5036929;28;20666;-71
2024/03/22 08:30:05;;;;;;;13.60;7.47;;;;;;;10.94;100.00;101109.66;5065676;28;20255;-71
2024/03/22 08:32:30;;;;;;;12.03;7.97;;;;;;;10.99;100.00;101106.84;5065444;28;20571;-71
2024/03/22 08:34:57;;;;;;;12.80;7.60;;;;;;;11.02;100.00;101106.25;5061881;28;20204;-71
2024/03/22 08:37:23;;;;;;;11.80;6.30;;;;;;;11.07;100.00;101106.06;5061029;28;20237;-71
2024/03/22 08:39:50;;;;;;;11.83;7.63;;;;;;;11.12;100.00;101106.66;5061335;28;20190;-72
2024/03/22 08:42:16;;;;;;;11.37;7.40;;;;;;;11.17;100.00;101111.00;5059552;28;20689;-71
2024/03/22 08:44:42;;;;;;;11.33;6.80;;;;;;;11.20;100.00;101108.50;5061317;28;20197;-71
2024/03/22 08:47:08;;;;;;;11.60;7.23;;;;;;;11.24;100.00;101103.38;5066088;28;20634;-71
2024/03/22 08:49:36;;;;;;;13.37;7.67;;;;;;;11.29;100.00;101101.31;5059810;28;20207;-71
2024/03/22 08:52:02;;;;;;;9.80;6.97;;;;;;;11.34;100.00;101100.38;5059974;28;20213;-71
2024/03/22 08:54:28;;;;;;;11.30;7.37;;;;;;;11.43;100.00;101106.41;5063430;28;20572;-71
2024/03/22 08:56:55;;;;;;;11.23;7.53;;;;;;;11.53;100.00;101111.31;5062106;28;20218;-71
2024/03/22 08:59:23;;;;;;;10.50;6.60;;;;;;;11.60;100.00;101103.72;5056588;28;20203;-71
2024/03/22 09:01:48;;;;;;;11.53;7.77;;;;;;;11.67;100.00;101099.47;5063619;28;20194;-71
2024/03/22 09:04:15;;;;;;;10.23;7.20;;;;;;;11.78;100.00;101094.56;5058547;28;20210;-71
2024/03/22 09:06:40;;;;;;;11.67;7.40;;;;;;;11.90;100.00;101089.38;5065118;28;20226;-71
2024/03/22 09:09:08;;;;;;;12.10;7.37;;;;;;;12.06;100.00;101090.34;5044527;28;20264;-71
2024/03/22 09:11:33;;;;;;;13.53;9.07;;;;;;;12.20;100.00;101094.28;5060722;28;20225;-71
2024/03/22 09:14:01;;;;;;;10.97;7.17;;;;;;;12.31;100.00;101092.78;5065685;28;20228;-72
2024/03/22 09:16:26;;;;;;;11.53;7.17;;;;;;;12.40;100.00;101093.50;5060006;28;20225;-71
2024/03/22 09:18:53;;;;;;;11.43;6.50;;;;;;;12.44;100.00;101094.41;5063440;28;20191;-71
2024/03/22 09:21:18;;;;;;;11.73;7.30;;;;;;;12.48;100.00;101090.00;5061446;28;20196;-71
2024/03/22 09:23:44;;;;;;;13.30;7.80;;;;;;;12.55;100.00;101081.53;5060369;28;20213;-71
2024/03/22 09:26:10;;;;;;;13.97;7.93;;;;;;;12.58;100.00;101081.66;5060685;28;20219;-71
2024/03/22 09:28:36;;;;;;;13.00;8.17;;;;;;;12.65;100.00;101067.88;5060017;28;20202;-71
2024/03/22 09:31:06;;;;;;;12.93;7.53;;;;;;;12.74;100.00;101064.03;5062134;28;20215;-71
2024/03/22 09:33:33;;;;;;;13.53;7.90;;;;;;;12.82;100.00;101062.41;5060704;28;20909;-71
2024/03/22 09:35:59;;;;;;;12.07;8.00;;;;;;;12.92;100.00;101061.97;5042990;28;20247;-71
2024/03/22 09:38:25;;;;;;;14.03;7.20;;;;;;;13.02;100.00;101064.22;5060728;28;20224;-71
2024/03/22 09:40:54;;;;;;;11.53;7.37;;;;;;;13.09;100.00;101061.81;5059928;28;20196;-71
2024/03/22 09:43:21;;;;;;;10.67;6.93;;;;;;;13.14;100.00;101058.97;5064124;28;20198;-71
2024/03/22 09:45:47;;;;;;;11.00;7.00;;;;;;;13.19;100.00;101056.09;5058628;28;20238;-71
2024/03/22 09:48:15;;;;;;;11.03;7.20;;;;;;;13.27;100.00;101060.50;5060832;28;20265;-71
2024/03/22 09:50:41;;;;;;;12.70;7.30;;;;;;;13.35;100.00;101051.69;5065916;28;20587;-72
2024/03/22 09:53:08;;;;;;;14.63;8.07;;;;;;;13.39;100.00;101044.56;5063035;28;20206;-71
2024/03/22 09:55:36;;;;;;;12.50;7.37;;;;;;;13.46;100.00;101047.47;5062903;28;20701;-71
2024/03/22 09:58:03;;;;;;;12.20;7.30;;;;;;;13.53;100.00;101048.47;5067727;28;20197;-71
2024/03/22 10:00:31;;;;;;;12.07;7.43;;;;;;;13.57;100.00;101037.94;5058235;28;20846;-71
2024/03/22 10:02:58;;;;;;;12.17;7.43;;;;;;;13.62;100.00;101030.50;5062531;28;20206;-71
2024/03/22 10:05:25;;;;;;;11.90;6.77;;;;;;;13.71;100.00;101025.09;5064699;28;20229;-71
2024/03/22 10:07:52;;;;;;;11.13;6.83;;;;;;;13.71;100.00;101017.16;5061440;28;20263;-71
2024/03/22 10:10:18;;;;;;;11.83;7.10;;;;;;;13.70;100.00;101016.38;5065178;28;20208;-71
2024/03/22 10:12:44;;;;;;;13.90;7.73;;;;;;;13.73;100.00;101014.91;5061867;28;20226;-72
2024/03/22 10:15:11;;;;;;;12.13;7.23;;;;;;;13.73;100.00;101009.59;5065308;28;20198;-71
2024/03/22 10:17:37;;;;;;;11.37;7.00;;;;;;;13.73;100.00;101006.97;5063821;28;20208;-71
2024/03/22 10:20:06;;;;;;;14.27;7.97;;;;;;;13.69;100.00;101009.50;5062671;28;20196;-71
2024/03/22 10:22:34;;;;;;;11.50;6.57;;;;;;;13.60;100.00;100994.81;5063951;28;20414;-71
2024/03/22 10:25:00;;;;;;;13.27;7.50;;;;;;;13.58;100.00;100995.16;5060959;28;20277;-71
2024/03/22 10:27:28;;;;;;;13.73;7.63;;;;;;;13.65;100.00;100990.06;5059440;28;20223;-71
2024/03/22 10:29:54;;;;;;;13.87;9.07;;;;;;;13.63;100.00;100983.53;5062518;28;20230;-71
2024/03/22 10:32:21;;;;;;;14.43;7.90;;;;;;;13.66;100.00;100994.25;5061154;28;20210;-71
2024/03/22 10:34:48;;;;;;;12.83;7.67;;;;;;;13.66;100.00;100994.25;5061214;28;20206;-71
2024/03/22 10:37:16;;;;;;;12.30;7.53;;;;;;;13.65;100.00;100987.41;5062775;28;20804;-71
2024/03/22 10:39:45;;;;;;;11.93;7.67;;;;;;;13.65;100.00;100979.44;5062959;28;20658;-71
2024/03/22 10:42:13;;;;;;;13.00;7.70;;;;;;;13.66;100.00;100973.03;5062209;28;20194;-71
2024/03/22 10:44:41;;;;;;;13.47;7.97;;;;;;;13.62;100.00;100966.84;5064015;28;20215;-71
2024/03/22 10:47:11;;;;;;;15.13;8.07;;;;;;;13.62;100.00;100977.44;5063215;28;20222;-71
2024/03/22 10:49:38;;;;;;;13.17;8.20;;;;;;;13.63;100.00;100968.41;5062323;28;20205;-71
2024/03/22 10:52:08;;;;;;;15.17;7.97;;;;;;;13.65;100.00;100966.16;5060354;28;20289;-71
2024/03/22 10:54:37;;;;;;;11.97;7.17;;;;;;;13.67;100.00;100966.59;5042838;28;20205;-71
2024/03/22 10:57:06;;;;;;;11.47;6.60;;;;;;;13.70;100.00;100975.78;5059266;28;20222;-71
2024/03/22 10:59:33;;;;;;;13.17;7.73;;;;;;;13.71;100.00;100959.50;5063733;28;20206;-71
2024/03/22 11:02:03;;;;;;;12.47;6.93;;;;;;;13.73;100.00;100959.97;5063857;28;20741;-71
2024/03/22 11:04:30;;;;;;;12.90;7.40;;;;;;;13.76;100.00;100961.94;5060833;28;20191;-71
2024/03/22 11:06:58;;;;;;;12.50;7.30;;;;;;;13.80;100.00;100959.38;5063805;28;20600;-71
2024/03/22 11:09:25;;;;;;;13.90;8.40;;;;;;;13.81;100.00;100947.66;5060314;28;20202;-71
2024/03/22 11:11:53;;;;;;;13.60;8.50;;;;;;;13.86;100.00;100945.53;5064094;28;20272;-71